sensor_id;sensor_type;location;lat;lon;timestamp;pressure;altitude;pressure_sealevel;temperature;humidity
57668;BME280;43499;52.366;12.912;2023-06-26T00:04:54;101205.78;;;19.60;100.00
57668;BME280;43499;52.366;12.912;2023-06-26T00:12:14;101159.75;;;19.29;100.00
57668;BME280;43499;52.366;12.912;2023-06-26T00:23:49;101223.19;;;19.69;100.00
57668;BME280;43499;52.366;12.912;2023-06-26T00:42:26;101217.28;;;19.58;100.00
57668;BME280;43499;52.366;12.912;2023-06-26T00:50:29;101217.13;;;19.55;100.00
57668;BME280;43499;52.366;12.912;2023-06-26T01:40:28;101175.91;;;19.49;93.04
57668;BME280;43499;52.366;12.912;2023-06-26T01:41:30;101172.22;;;19.47;92.85
57668;BME280;43499;52.366;12.912;2023-06-26T01:42:32;101148.19;;;19.29;93.05
57668;BME280;43499;52.366;12.912;2023-06-26T01:44:55;101163.75;;;19.37;93.05
57668;BME280;43499;52.366;12.912;2023-06-26T01:46:04;101175.56;;;19.42;92.92
57668;BME280;43499;52.366;12.912;2023-06-26T01:47:05;101168.41;;;19.41;93.20
57668;BME280;43499;52.366;12.912;2023-06-26T01:48:08;101170.91;;;19.38;93.29
57668;BME280;43499;52.366;12.912;2023-06-26T01:49:31;101173.56;;;19.38;93.41
57668;BME280;43499;52.366;12.912;2023-06-26T01:50:35;101144.22;;;19.20;93.95
57668;BME280;43499;52.366;12.912;2023-06-26T01:51:53;101148.25;;;19.30;94.24
57668;BME280;43499;52.366;12.912;2023-06-26T01:53:02;101168.50;;;19.43;91.57
57668;BME280;43499;52.366;12.912;2023-06-26T01:54:08;101148.50;;;19.35;90.23
57668;BME280;43499;52.366;12.912;2023-06-26T01:55:20;101138.44;;;19.29;90.51
57668;BME280;43499;52.366;12.912;2023-06-26T01:56:23;101165.97;;;19.46;88.74
57668;BME280;43499;52.366;12.912;2023-06-26T01:57:26;101155.00;;;19.40;89.12
57668;BME280;43499;52.366;12.912;2023-06-26T01:58:29;101166.19;;;19.51;89.13
57668;BME280;43499;52.366;12.912;2023-06-26T01:59:32;101159.97;;;19.50;89.19
57668;BME280;43499;52.366;12.912;2023-06-26T02:00:34;101160.81;;;19.49;89.52
57668;BME280;43499;52.366;12.912;2023-06-26T02:01:36;101152.50;;;19.43;89.86
57668;BME280;43499;52.366;12.912;2023-06-26T02:02:37;101153.47;;;19.45;89.38
57668;BME280;43499;52.366;12.912;2023-06-26T02:03:38;101125.22;;;19.31;90.04
57668;BME280;43499;52.366;12.912;2023-06-26T02:04:40;101147.66;;;19.36;91.25
57668;BME280;43499;52.366;12.912;2023-06-26T02:05:41;101149.97;;;19.46;91.70
57668;BME280;43499;52.366;12.912;2023-06-26T02:06:42;101136.50;;;19.43;92.37
57668;BME280;43499;52.366;12.912;2023-06-26T02:07:43;101128.25;;;19.38;92.85
57668;BME280;43499;52.366;12.912;2023-06-26T02:08:48;101142.66;;;19.42;92.84
57668;BME280;43499;52.366;12.912;2023-06-26T02:09:49;101149.31;;;19.50;92.77
57668;BME280;43499;52.366;12.912;2023-06-26T02:10:50;101128.41;;;19.41;92.68
57668;BME280;43499;52.366;12.912;2023-06-26T02:11:51;101117.50;;;19.37;92.61
57668;BME280;43499;52.366;12.912;2023-06-26T02:12:52;101126.44;;;19.37;92.45
57668;BME280;43499;52.366;12.912;2023-06-26T02:13:53;101122.00;;;19.38;92.90
57668;BME280;43499;52.366;12.912;2023-06-26T02:14:54;101148.47;;;19.51;92.80
57668;BME280;43499;52.366;12.912;2023-06-26T02:15:59;101116.44;;;19.33;92.47
57668;BME280;43499;52.366;12.912;2023-06-26T02:17:00;101123.91;;;19.40;92.60
57668;BME280;43499;52.366;12.912;2023-06-26T02:18:01;101136.81;;;19.49;92.54
57668;BME280;43499;52.366;12.912;2023-06-26T02:19:02;101104.00;;;19.34;92.70
57668;BME280;43499;52.366;12.912;2023-06-26T02:20:04;101131.19;;;19.43;92.55
57668;BME280;43499;52.366;12.912;2023-06-26T02:21:06;101137.56;;;19.47;92.92
57668;BME280;43499;52.366;12.912;2023-06-26T02:22:07;101122.00;;;19.38;92.73
57668;BME280;43499;52.366;12.912;2023-06-26T02:23:08;101112.78;;;19.31;92.55
57668;BME280;43499;52.366;12.912;2023-06-26T02:24:10;101125.50;;;19.37;92.87
57668;BME280;43499;52.366;12.912;2023-06-26T02:25:11;101131.91;;;19.40;93.09
57668;BME280;43499;52.366;12.912;2023-06-26T02:26:13;101146.34;;;19.44;93.46
57668;BME280;43499;52.366;12.912;2023-06-26T02:27:17;101119.88;;;19.31;93.26
57668;BME280;43499;52.366;12.912;2023-06-26T02:28:18;101141.00;;;19.44;93.48
57668;BME280;43499;52.366;12.912;2023-06-26T02:29:19;101148.31;;;19.48;93.43
57668;BME280;43499;52.366;12.912;2023-06-26T02:30:20;101115.22;;;19.26;93.17
57668;BME280;43499;52.366;12.912;2023-06-26T02:31:21;101127.94;;;19.32;93.44
57668;BME280;43499;52.366;12.912;2023-06-26T02:32:22;101146.16;;;19.41;93.63
57668;BME280;43499;52.366;12.912;2023-06-26T02:33:24;101123.03;;;19.23;93.88
57668;BME280;43499;52.366;12.912;2023-06-26T02:34:25;101109.16;;;19.13;93.38
57668;BME280;43499;52.366;12.912;2023-06-26T02:35:28;101135.94;;;19.32;93.47
57668;BME280;43499;52.366;12.912;2023-06-26T02:36:29;101141.50;;;19.37;93.93
57668;BME280;43499;52.366;12.912;2023-06-26T02:37:30;101145.25;;;19.40;93.87
57668;BME280;43499;52.366;12.912;2023-06-26T02:38:31;101148.00;;;19.42;93.44
57668;BME280;43499;52.366;12.912;2023-06-26T02:39:33;101118.09;;;19.31;93.21
57668;BME280;43499;52.366;12.912;2023-06-26T02:40:35;101141.13;;;19.47;93.23
57668;BME280;43499;52.366;12.912;2023-06-26T02:41:37;101129.41;;;19.43;92.89
57668;BME280;43499;52.366;12.912;2023-06-26T02:42:39;101129.19;;;19.39;91.95
57668;BME280;43499;52.366;12.912;2023-06-26T02:43:40;101143.81;;;19.47;91.35
57668;BME280;43499;52.366;12.912;2023-06-26T02:44:41;101131.25;;;19.45;91.15
57668;BME280;43499;52.366;12.912;2023-06-26T02:45:42;101121.84;;;19.35;90.44
57668;BME280;43499;52.366;12.912;2023-06-26T02:46:44;101137.56;;;19.47;89.21
57668;BME280;43499;52.366;12.912;2023-06-26T02:47:45;101133.25;;;19.49;88.90
57668;BME280;43499;52.366;12.912;2023-06-26T02:48:46;101085.59;;;19.20;88.60
57668;BME280;43499;52.366;12.912;2023-06-26T02:49:48;101114.91;;;19.38;88.63
57668;BME280;43499;52.366;12.912;2023-06-26T02:50:49;101134.91;;;19.47;88.65
57668;BME280;43499;52.366;12.912;2023-06-26T02:51:50;101122.53;;;19.31;87.71
57668;BME280;43499;52.366;12.912;2023-06-26T02:52:58;101139.19;;;19.43;87.99
57668;BME280;43499;52.366;12.912;2023-06-26T02:54:00;101122.69;;;19.34;87.38
57668;BME280;43499;52.366;12.912;2023-06-26T02:55:01;101130.78;;;19.35;87.28
57668;BME280;43499;52.366;12.912;2023-06-26T02:56:03;101135.41;;;19.39;87.55
57668;BME280;43499;52.366;12.912;2023-06-26T02:57:05;101130.78;;;19.35;87.81
57668;BME280;43499;52.366;12.912;2023-06-26T02:58:07;101091.19;;;19.08;87.54
57668;BME280;43499;52.366;12.912;2023-06-26T02:59:09;101122.31;;;19.26;87.92
57668;BME280;43499;52.366;12.912;2023-06-26T03:00:10;101127.16;;;19.35;87.83
57668;BME280;43499;52.366;12.912;2023-06-26T03:01:18;101085.78;;;19.07;87.19
57668;BME280;43499;52.366;12.912;2023-06-26T03:02:21;101132.69;;;19.38;87.04
57668;BME280;43499;52.366;12.912;2023-06-26T03:03:22;101124.03;;;19.25;85.05
57668;BME280;43499;52.366;12.912;2023-06-26T03:04:23;101123.38;;;19.30;85.45
57668;BME280;43499;52.366;12.912;2023-06-26T03:05:25;101121.72;;;19.32;85.30
57668;BME280;43499;52.366;12.912;2023-06-26T03:06:27;101116.97;;;19.26;85.52
57668;BME280;43499;52.366;12.912;2023-06-26T03:07:28;101103.25;;;19.18;85.70
57668;BME280;43499;52.366;12.912;2023-06-26T03:08:30;101102.00;;;19.11;85.99
57668;BME280;43499;52.366;12.912;2023-06-26T03:09:31;101120.22;;;19.20;86.42
57668;BME280;43499;52.366;12.912;2023-06-26T03:10:32;101107.63;;;19.18;86.46
57668;BME280;43499;52.366;12.912;2023-06-26T03:11:34;101122.44;;;19.29;85.95
57668;BME280;43499;52.366;12.912;2023-06-26T03:12:35;101126.09;;;19.31;85.75
57668;BME280;43499;52.366;12.912;2023-06-26T03:13:37;101129.84;;;19.35;86.04
57668;BME280;43499;52.366;12.912;2023-06-26T03:14:38;101122.84;;;19.37;85.16
57668;BME280;43499;52.366;12.912;2023-06-26T03:15:39;101119.88;;;19.31;85.06
57668;BME280;43499;52.366;12.912;2023-06-26T03:16:41;101109.13;;;19.29;85.17
57668;BME280;43499;52.366;12.912;2023-06-26T03:17:42;101108.97;;;19.26;85.55
57668;BME280;43499;52.366;12.912;2023-06-26T03:18:48;101117.22;;;19.31;85.61
57668;BME280;43499;52.366;12.912;2023-06-26T03:19:49;101112.47;;;19.25;84.62
57668;BME280;43499;52.366;12.912;2023-06-26T03:20:56;101116.50;;;19.35;84.45
57668;BME280;43499;52.366;12.912;2023-06-26T03:21:57;101115.63;;;19.34;84.33
57668;BME280;43499;52.366;12.912;2023-06-26T03:22:58;101109.59;;;19.38;84.11
57668;BME280;43499;52.366;12.912;2023-06-26T03:24:00;101115.00;;;19.40;84.11
57668;BME280;43499;52.366;12.912;2023-06-26T03:25:02;101117.69;;;19.40;84.45
57668;BME280;43499;52.366;12.912;2023-06-26T03:26:05;101116.00;;;19.42;84.65
57668;BME280;43499;52.366;12.912;2023-06-26T03:27:09;101113.34;;;19.42;85.00
57668;BME280;43499;52.366;12.912;2023-06-26T03:28:11;101101.53;;;19.37;85.06
57668;BME280;43499;52.366;12.912;2023-06-26T03:29:12;101112.25;;;19.38;84.57
57668;BME280;43499;52.366;12.912;2023-06-26T03:30:13;101119.97;;;19.50;84.18
57668;BME280;43499;52.366;12.912;2023-06-26T03:31:16;101102.81;;;19.45;84.02
57668;BME280;43499;52.366;12.912;2023-06-26T03:32:17;101106.88;;;19.55;84.09
57668;BME280;43499;52.366;12.912;2023-06-26T03:33:19;101108.41;;;19.50;84.03
57668;BME280;43499;52.366;12.912;2023-06-26T03:34:20;101110.31;;;19.52;84.12
57668;BME280;43499;52.366;12.912;2023-06-26T03:35:22;101106.41;;;19.46;84.24
57668;BME280;43499;52.366;12.912;2023-06-26T03:36:23;101114.25;;;19.42;83.38
57668;BME280;43499;52.366;12.912;2023-06-26T03:37:24;101098.69;;;19.34;83.39
57668;BME280;43499;52.366;12.912;2023-06-26T03:38:25;101087.56;;;19.24;83.59
57668;BME280;43499;52.366;12.912;2023-06-26T03:39:28;101109.44;;;19.35;83.74
57668;BME280;43499;52.366;12.912;2023-06-26T03:40:30;101112.19;;;19.37;84.04
57668;BME280;43499;52.366;12.912;2023-06-26T03:41:31;101090.16;;;19.23;82.40
57668;BME280;43499;52.366;12.912;2023-06-26T03:42:32;101109.34;;;19.34;82.95
57668;BME280;43499;52.366;12.912;2023-06-26T03:43:33;101111.28;;;19.36;83.87
57668;BME280;43499;52.366;12.912;2023-06-26T03:44:54;101084.81;;;19.23;84.00
57668;BME280;43499;52.366;12.912;2023-06-26T03:45:55;101097.56;;;19.29;83.70
57668;BME280;43499;52.366;12.912;2023-06-26T03:46:56;101062.63;;;19.06;83.80
57668;BME280;43499;52.366;12.912;2023-06-26T03:47:59;101110.28;;;19.34;84.22
57668;BME280;43499;52.366;12.912;2023-06-26T03:49:00;101114.69;;;19.34;83.83
57668;BME280;43499;52.366;12.912;2023-06-26T03:50:02;101079.56;;;19.24;83.58
57668;BME280;43499;52.366;12.912;2023-06-26T03:51:03;101100.16;;;19.45;82.16
57668;BME280;43499;52.366;12.912;2023-06-26T03:52:05;101074.69;;;19.34;81.45
57668;BME280;43499;52.366;12.912;2023-06-26T03:53:06;101110.47;;;19.55;80.68
57668;BME280;43499;52.366;12.912;2023-06-26T03:54:07;101101.59;;;19.56;80.50
57668;BME280;43499;52.366;12.912;2023-06-26T03:55:08;101097.59;;;19.65;80.17
57668;BME280;43499;52.366;12.912;2023-06-26T03:56:09;101108.19;;;19.81;79.88
57668;BME280;43499;52.366;12.912;2023-06-26T03:57:10;101104.03;;;19.86;78.78
57668;BME280;43499;52.366;12.912;2023-06-26T03:58:11;101104.03;;;19.86;78.36
57668;BME280;43499;52.366;12.912;2023-06-26T03:59:12;101080.22;;;19.73;78.53
57668;BME280;43499;52.366;12.912;2023-06-26T04:00:14;101115.34;;;19.82;78.04
57668;BME280;43499;52.366;12.912;2023-06-26T04:01:18;101106.88;;;19.90;78.67
57668;BME280;43499;52.366;12.912;2023-06-26T04:02:21;101098.97;;;19.93;77.68
57668;BME280;43499;52.366;12.912;2023-06-26T04:03:22;101087.00;;;19.84;78.14
57668;BME280;43499;52.366;12.912;2023-06-26T04:04:23;101086.00;;;19.64;77.65
57668;BME280;43499;52.366;12.912;2023-06-26T04:05:24;101099.44;;;19.66;78.52
57668;BME280;43499;52.366;12.912;2023-06-26T04:06:25;101092.88;;;19.77;78.86
57668;BME280;43499;52.366;12.912;2023-06-26T04:07:26;101077.16;;;19.83;77.82
57668;BME280;43499;52.366;12.912;2023-06-26T04:08:28;101094.41;;;19.90;77.20
57668;BME280;43499;52.366;12.912;2023-06-26T04:09:30;101100.91;;;19.95;77.95
57668;BME280;43499;52.366;12.912;2023-06-26T04:10:31;101096.19;;;19.90;78.18
57668;BME280;43499;52.366;12.912;2023-06-26T04:11:32;101076.09;;;19.80;77.63
57668;BME280;43499;52.366;12.912;2023-06-26T04:12:34;101089.84;;;20.06;77.85
57668;BME280;43499;52.366;12.912;2023-06-26T04:13:35;101073.84;;;20.06;77.13
57668;BME280;43499;52.366;12.912;2023-06-26T04:14:36;101080.38;;;20.12;76.84
57668;BME280;43499;52.366;12.912;2023-06-26T04:15:37;101083.75;;;20.28;76.68
57668;BME280;43499;52.366;12.912;2023-06-26T04:16:38;101100.22;;;20.37;76.45
57668;BME280;43499;52.366;12.912;2023-06-26T04:17:39;101081.25;;;20.31;76.07
57668;BME280;43499;52.366;12.912;2023-06-26T04:18:40;101080.41;;;20.32;76.29
57668;BME280;43499;52.366;12.912;2023-06-26T04:19:41;101087.50;;;20.13;76.51
57668;BME280;43499;52.366;12.912;2023-06-26T04:21:07;101087.06;;;20.04;77.71
57668;BME280;43499;52.366;12.912;2023-06-26T04:22:08;101091.34;;;20.18;77.30
57668;BME280;43499;52.366;12.912;2023-06-26T04:23:09;101083.38;;;20.20;77.10
57668;BME280;43499;52.366;12.912;2023-06-26T04:24:10;101092.44;;;20.42;77.24
57668;BME280;43499;52.366;12.912;2023-06-26T04:25:11;101080.97;;;20.44;76.08
57668;BME280;43499;52.366;12.912;2023-06-26T04:26:12;101096.75;;;20.58;75.99
57668;BME280;43499;52.366;12.912;2023-06-26T04:27:15;101077.25;;;20.60;75.51
57668;BME280;43499;52.366;12.912;2023-06-26T04:28:16;101070.00;;;20.76;75.28
57668;BME280;43499;52.366;12.912;2023-06-26T04:29:18;101092.88;;;21.10;74.30
57668;BME280;43499;52.366;12.912;2023-06-26T04:30:19;101082.50;;;21.18;73.77
57668;BME280;43499;52.366;12.912;2023-06-26T04:31:20;101094.91;;;21.37;72.95
57668;BME280;43499;52.366;12.912;2023-06-26T04:32:21;101087.41;;;21.28;72.50
57668;BME280;43499;52.366;12.912;2023-06-26T04:33:22;101095.50;;;21.51;72.82
57668;BME280;43499;52.366;12.912;2023-06-26T04:34:25;101073.47;;;21.56;72.49
57668;BME280;43499;52.366;12.912;2023-06-26T04:35:26;101065.38;;;21.76;71.94
57668;BME280;43499;52.366;12.912;2023-06-26T04:36:27;101077.47;;;21.89;72.08
57668;BME280;43499;52.366;12.912;2023-06-26T04:37:29;101090.31;;;21.98;70.62
57668;BME280;43499;52.366;12.912;2023-06-26T04:38:31;101089.66;;;22.03;69.93
57668;BME280;43499;52.366;12.912;2023-06-26T04:39:32;101091.22;;;21.98;69.45
57668;BME280;43499;52.366;12.912;2023-06-26T04:40:33;101069.22;;;21.62;71.00
57668;BME280;43499;52.366;12.912;2023-06-26T04:41:34;101100.72;;;21.90;71.33
57668;BME280;43499;52.366;12.912;2023-06-26T04:42:35;101091.53;;;22.06;70.48
57668;BME280;43499;52.366;12.912;2023-06-26T04:43:36;101061.78;;;21.98;70.36
57668;BME280;43499;52.366;12.912;2023-06-26T04:44:38;101064.00;;;22.09;70.72
57668;BME280;43499;52.366;12.912;2023-06-26T04:45:39;101084.59;;;22.34;70.31
57668;BME280;43499;52.366;12.912;2023-06-26T04:46:40;101089.50;;;22.44;69.15
57668;BME280;43499;52.366;12.912;2023-06-26T04:47:44;101083.47;;;22.50;68.22
57668;BME280;43499;52.366;12.912;2023-06-26T04:48:45;101070.41;;;22.59;68.44
57668;BME280;43499;52.366;12.912;2023-06-26T04:49:47;101042.31;;;22.25;68.18
57668;BME280;43499;52.366;12.912;2023-06-26T04:50:48;101086.34;;;22.56;68.71
57668;BME280;43499;52.366;12.912;2023-06-26T04:51:55;101085.06;;;22.69;68.71
57668;BME280;43499;52.366;12.912;2023-06-26T04:52:56;101067.50;;;22.77;68.32
57668;BME280;43499;52.366;12.912;2023-06-26T04:53:57;101053.09;;;22.74;67.65
57668;BME280;43499;52.366;12.912;2023-06-26T04:54:58;101084.53;;;23.04;67.36
57668;BME280;43499;52.366;12.912;2023-06-26T04:55:59;101060.72;;;23.13;67.28
57668;BME280;43499;52.366;12.912;2023-06-26T04:57:00;101077.91;;;23.44;66.76
57668;BME280;43499;52.366;12.912;2023-06-26T04:58:02;101079.34;;;23.60;66.01
57668;BME280;43499;52.366;12.912;2023-06-26T04:59:03;101065.56;;;23.49;65.72
57668;BME280;43499;52.366;12.912;2023-06-26T05:00:04;101077.66;;;23.64;65.45
57668;BME280;43499;52.366;12.912;2023-06-26T05:01:11;101068.19;;;23.75;65.17
57668;BME280;43499;52.366;12.912;2023-06-26T05:02:14;101031.19;;;23.65;64.41
57668;BME280;43499;52.366;12.912;2023-06-26T05:03:17;101072.09;;;23.85;63.88
57668;BME280;43499;52.366;12.912;2023-06-26T05:04:19;101061.50;;;23.90;64.07
57668;BME280;43499;52.366;12.912;2023-06-26T05:05:20;101065.66;;;24.07;63.93
57668;BME280;43499;52.366;12.912;2023-06-26T05:06:21;101067.16;;;24.26;63.19
57668;BME280;43499;52.366;12.912;2023-06-26T05:07:23;101071.66;;;24.27;62.69
57668;BME280;43499;52.366;12.912;2023-06-26T05:08:24;101071.31;;;24.16;61.99
57668;BME280;43499;52.366;12.912;2023-06-26T05:09:27;101057.19;;;23.95;63.62
57668;BME280;43499;52.366;12.912;2023-06-26T05:10:28;101066.25;;;24.26;63.17
57668;BME280;43499;52.366;12.912;2023-06-26T05:11:29;101057.91;;;24.47;62.09
57668;BME280;43499;52.366;12.912;2023-06-26T05:12:30;101046.63;;;24.59;62.04
57668;BME280;43499;52.366;12.912;2023-06-26T05:13:31;101063.19;;;24.74;61.58
57668;BME280;43499;52.366;12.912;2023-06-26T05:14:32;100998.66;;;24.42;61.67
57668;BME280;43499;52.366;12.912;2023-06-26T05:15:33;101052.75;;;24.85;60.75
57668;BME280;43499;52.366;12.912;2023-06-26T05:16:35;101055.47;;;24.87;60.19
57668;BME280;43499;52.366;12.912;2023-06-26T05:17:36;101047.28;;;24.82;60.39
57668;BME280;43499;52.366;12.912;2023-06-26T05:18:37;101045.03;;;24.67;59.34
57668;BME280;43499;52.366;12.912;2023-06-26T05:19:38;101035.88;;;24.59;60.64
57668;BME280;43499;52.366;12.912;2023-06-26T05:20:40;101053.81;;;24.90;60.76
57668;BME280;43499;52.366;12.912;2023-06-26T05:21:42;101063.00;;;24.99;60.93
57668;BME280;43499;52.366;12.912;2023-06-26T05:22:43;101066.50;;;24.96;60.13
57668;BME280;43499;52.366;12.912;2023-06-26T05:23:44;101060.50;;;25.06;60.08
57668;BME280;43499;52.366;12.912;2023-06-26T05:24:46;101064.63;;;25.27;60.02
57668;BME280;43499;52.366;12.912;2023-06-26T05:25:48;101039.09;;;25.45;59.60
57668;BME280;43499;52.366;12.912;2023-06-26T05:26:51;101059.38;;;25.67;58.94
57668;BME280;43499;52.366;12.912;2023-06-26T05:27:52;101037.81;;;25.65;59.45
57668;BME280;43499;52.366;12.912;2023-06-26T05:28:54;101053.88;;;26.00;58.81
57668;BME280;43499;52.366;12.912;2023-06-26T05:29:55;101049.16;;;25.90;58.17
57668;BME280;43499;52.366;12.912;2023-06-26T05:30:57;101049.50;;;26.04;56.78
57668;BME280;43499;52.366;12.912;2023-06-26T05:31:59;101052.50;;;26.16;56.21
57668;BME280;43499;52.366;12.912;2023-06-26T05:33:01;101051.59;;;26.17;56.50
57668;BME280;43499;52.366;12.912;2023-06-26T05:34:03;101042.75;;;26.23;55.85
57668;BME280;43499;52.366;12.912;2023-06-26T05:35:05;101040.28;;;26.34;55.16
57668;BME280;43499;52.366;12.912;2023-06-26T05:36:07;101042.63;;;26.18;56.02
57668;BME280;43499;52.366;12.912;2023-06-26T05:37:14;101045.69;;;26.36;55.31
57668;BME280;43499;52.366;12.912;2023-06-26T05:38:15;101047.47;;;25.57;56.62
57668;BME280;43499;52.366;12.912;2023-06-26T05:39:17;101030.09;;;25.81;57.12
57668;BME280;43499;52.366;12.912;2023-06-26T05:40:19;101040.03;;;26.23;56.38
57668;BME280;43499;52.366;12.912;2023-06-26T05:41:20;101032.47;;;26.48;55.62
57668;BME280;43499;52.366;12.912;2023-06-26T05:42:22;101035.41;;;26.59;55.25
57668;BME280;43499;52.366;12.912;2023-06-26T05:43:23;101023.91;;;26.68;53.88
57668;BME280;43499;52.366;12.912;2023-06-26T05:44:24;101035.94;;;26.84;54.04
57668;BME280;43499;52.366;12.912;2023-06-26T05:45:25;101032.63;;;27.00;53.55
57668;BME280;43499;52.366;12.912;2023-06-26T05:46:26;101022.94;;;27.12;53.29
57668;BME280;43499;52.366;12.912;2023-06-26T05:47:27;101016.72;;;27.16;53.46
57668;BME280;43499;52.366;12.912;2023-06-26T05:48:29;100999.72;;;27.20;53.57
57668;BME280;43499;52.366;12.912;2023-06-26T05:49:30;101020.59;;;27.30;52.38
57668;BME280;43499;52.366;12.912;2023-06-26T05:50:32;101033.16;;;27.30;52.65
57668;BME280;43499;52.366;12.912;2023-06-26T05:51:33;101007.63;;;27.10;53.31
57668;BME280;43499;52.366;12.912;2023-06-26T05:52:35;101024.13;;;27.28;52.93
57668;BME280;43499;52.366;12.912;2023-06-26T05:53:37;101002.41;;;27.20;53.49
57668;BME280;43499;52.366;12.912;2023-06-26T05:54:38;101016.94;;;27.28;53.54
57668;BME280;43499;52.366;12.912;2023-06-26T05:55:39;101003.97;;;27.07;53.55
57668;BME280;43499;52.366;12.912;2023-06-26T05:56:43;101007.69;;;27.14;52.95
57668;BME280;43499;52.366;12.912;2023-06-26T05:57:46;101010.00;;;26.92;53.43
57668;BME280;43499;52.366;12.912;2023-06-26T05:58:49;101023.16;;;27.24;53.91
57668;BME280;43499;52.366;12.912;2023-06-26T05:59:51;101010.13;;;27.50;52.87
57668;BME280;43499;52.366;12.912;2023-06-26T06:00:52;100997.59;;;27.54;51.30
57668;BME280;43499;52.366;12.912;2023-06-26T06:01:53;101023.59;;;26.98;52.98
57668;BME280;43499;52.366;12.912;2023-06-26T06:02:55;101016.34;;;26.94;53.43
57668;BME280;43499;52.366;12.912;2023-06-26T06:03:56;101004.69;;;26.95;53.25
57668;BME280;43499;52.366;12.912;2023-06-26T06:04:57;101022.50;;;27.39;53.24
57668;BME280;43499;52.366;12.912;2023-06-26T06:05:58;101003.19;;;27.66;52.39
57668;BME280;43499;52.366;12.912;2023-06-26T06:06:59;101018.72;;;27.83;52.20
57668;BME280;43499;52.366;12.912;2023-06-26T06:08:00;101005.97;;;27.71;51.46
57668;BME280;43499;52.366;12.912;2023-06-26T06:09:01;100989.16;;;27.35;53.39
57668;BME280;43499;52.366;12.912;2023-06-26T06:10:03;100999.03;;;27.33;52.64
57668;BME280;43499;52.366;12.912;2023-06-26T06:11:04;100969.75;;;27.03;53.86
57668;BME280;43499;52.366;12.912;2023-06-26T06:12:06;101002.59;;;27.31;53.29
57668;BME280;43499;52.366;12.912;2023-06-26T06:13:08;100992.16;;;27.52;53.20
57668;BME280;43499;52.366;12.912;2023-06-26T06:14:09;101018.66;;;27.77;52.57
57668;BME280;43499;52.366;12.912;2023-06-26T06:15:10;101017.28;;;27.47;53.75
57668;BME280;43499;52.366;12.912;2023-06-26T06:16:11;101005.72;;;27.57;53.31
57668;BME280;43499;52.366;12.912;2023-06-26T06:17:12;100999.88;;;27.29;53.03
57668;BME280;43499;52.366;12.912;2023-06-26T06:18:13;101012.88;;;27.01;53.99
57668;BME280;43499;52.366;12.912;2023-06-26T06:19:14;100995.63;;;26.91;54.46
57668;BME280;43499;52.366;12.912;2023-06-26T06:20:17;101003.38;;;27.25;54.18
57668;BME280;43499;52.366;12.912;2023-06-26T06:21:18;101003.09;;;27.08;53.60
57668;BME280;43499;52.366;12.912;2023-06-26T06:22:19;100998.19;;;27.37;54.45
57668;BME280;43499;52.366;12.912;2023-06-26T06:23:20;101006.78;;;27.65;53.61
57668;BME280;43499;52.366;12.912;2023-06-26T06:24:21;101002.47;;;27.78;52.42
57668;BME280;43499;52.366;12.912;2023-06-26T06:25:22;100988.75;;;27.64;53.14
57668;BME280;43499;52.366;12.912;2023-06-26T06:26:23;100988.28;;;27.36;52.30
57668;BME280;43499;52.366;12.912;2023-06-26T06:27:25;101008.34;;;27.49;52.36
57668;BME280;43499;52.366;12.912;2023-06-26T06:28:26;101011.47;;;26.74;53.78
57668;BME280;43499;52.366;12.912;2023-06-26T06:29:27;101006.84;;;26.69;54.62
57668;BME280;43499;52.366;12.912;2023-06-26T06:30:28;101000.38;;;27.06;54.48
57668;BME280;43499;52.366;12.912;2023-06-26T06:31:29;101009.34;;;27.58;53.80
57668;BME280;43499;52.366;12.912;2023-06-26T06:32:30;101008.97;;;27.36;53.41
57668;BME280;43499;52.366;12.912;2023-06-26T06:33:31;101006.78;;;27.67;53.59
57668;BME280;43499;52.366;12.912;2023-06-26T06:34:32;100996.94;;;27.70;52.79
57668;BME280;43499;52.366;12.912;2023-06-26T06:35:33;101000.31;;;27.54;52.22
57668;BME280;43499;52.366;12.912;2023-06-26T06:36:34;101008.03;;;27.89;52.58
57668;BME280;43499;52.366;12.912;2023-06-26T06:37:37;101005.22;;;27.81;51.53
57668;BME280;43499;52.366;12.912;2023-06-26T06:38:38;100997.88;;;27.74;52.29
57668;BME280;43499;52.366;12.912;2023-06-26T06:39:39;101002.91;;;27.48;52.01
57668;BME280;43499;52.366;12.912;2023-06-26T06:40:40;100991.41;;;27.63;52.19
57668;BME280;43499;52.366;12.912;2023-06-26T06:41:42;101004.03;;;27.62;52.64
57668;BME280;43499;52.366;12.912;2023-06-26T06:42:43;101000.88;;;27.94;51.63
57668;BME280;43499;52.366;12.912;2023-06-26T06:43:44;101006.75;;;28.27;51.32
57668;BME280;43499;52.366;12.912;2023-06-26T06:44:45;101007.91;;;28.46;50.44
57668;BME280;43499;52.366;12.912;2023-06-26T06:45:46;100983.47;;;28.40;50.88
57668;BME280;43499;52.366;12.912;2023-06-26T06:46:47;100994.34;;;28.44;50.95
57668;BME280;43499;52.366;12.912;2023-06-26T06:47:48;100990.97;;;28.66;50.59
57668;BME280;43499;52.366;12.912;2023-06-26T06:48:49;100989.38;;;28.82;50.86
57668;BME280;43499;52.366;12.912;2023-06-26T06:49:50;100996.84;;;29.07;49.91
57668;BME280;43499;52.366;12.912;2023-06-26T06:50:51;100999.41;;;28.90;50.20
57668;BME280;43499;52.366;12.912;2023-06-26T06:51:52;100978.72;;;29.00;50.09
57668;BME280;43499;52.366;12.912;2023-06-26T06:52:53;100986.84;;;29.00;49.42
57668;BME280;43499;52.366;12.912;2023-06-26T06:53:54;101000.47;;;29.11;50.16
57668;BME280;43499;52.366;12.912;2023-06-26T06:54:57;101000.53;;;29.17;49.34
57668;BME280;43499;52.366;12.912;2023-06-26T06:56:06;100993.34;;;29.21;49.29